Terminal Aerodrome Forecast
Issued by NWS Salt Lake City, UT

Home | Current Version | Previous Version | Text Only | Print | Product List | Glossary On
Versions: 1 2 3 4 5 6 7 8 9 10 11 12 13 14 15 16 17 18 19 20 21 22 23 24 25 26 27 28 29 30 31 32 33 34
000
FTUS45 KSLC 222101 AAB
TAFSLC
TAF AMD
KSLC 222101Z 2221/2324 19014G23KT P6SM SCT040 BKN070
     FM230000 16011KT P6SM VCSH SCT020 BKN040
     FM231200 33007KT 2SM -SN BR SCT007 BKN015
     FM232000 32011KT P6SM VCSH SCT010 BKN040=

USA.gov is the U.S. government's official web portal to all federal, state and local government web resources and services.